createdAt,value
2023-05-05T00:01:50.594Z,100588.64
2023-05-05T00:04:22.805Z,100587.68
2023-05-05T00:06:50.677Z,100586.08
2023-05-05T00:09:17.796Z,100586.08
2023-05-05T00:11:45.165Z,100588.34
2023-05-05T00:14:12.110Z,100589.52
2023-05-05T00:16:39.258Z,100590.25
2023-05-05T00:19:06.867Z,100588.08
2023-05-05T00:21:33.676Z,100587.55
2023-05-05T00:24:00.600Z,100592.08
2023-05-05T00:26:27.536Z,100594.86
2023-05-05T00:28:55.412Z,100593.77
2023-05-05T00:31:22.838Z,100596.96
2023-05-05T00:33:50.002Z,100601.77
2023-05-05T00:36:16.866Z,100601.36
2023-05-05T00:38:43.699Z,100601.85
2023-05-05T00:41:10.861Z,100601.59
2023-05-05T00:43:37.717Z,100600.23
2023-05-05T00:46:23.658Z,100599.84
2023-05-05T00:48:51.088Z,100600.25
2023-05-05T00:51:19.041Z,100601.72
2023-05-05T00:53:46.856Z,100602.95
2023-05-05T00:56:14.486Z,100601.91
2023-05-05T00:58:42.563Z,100599.70
2023-05-05T01:01:10.862Z,100602.78
2023-05-05T01:03:38.945Z,100600.45
2023-05-05T01:06:15.640Z,100601.23
2023-05-05T01:16:30.209Z,100596.08
2023-05-05T01:18:57.243Z,100593.16
2023-05-05T01:21:27.696Z,100591.90
2023-05-05T01:24:01.477Z,100594.31
2023-05-05T01:26:48.340Z,100593.77
2023-05-05T01:29:42.171Z,100591.11
2023-05-05T01:32:15.913Z,100589.14
2023-05-05T01:34:52.405Z,100583.06
2023-05-05T01:37:22.671Z,100578.16
2023-05-05T01:39:53.179Z,100575.77
2023-05-05T01:42:20.034Z,100575.56
2023-05-05T01:44:46.972Z,100576.17
2023-05-05T01:47:17.069Z,100570.98
2023-05-05T01:49:45.143Z,100570.52
2023-05-05T01:52:11.982Z,100570.71
2023-05-05T01:54:39.674Z,100571.24
2023-05-05T01:57:06.650Z,100570.16
2023-05-05T01:59:33.754Z,100568.70
2023-05-05T02:02:01.254Z,100564.34
2023-05-05T02:04:28.717Z,100562.61
2023-05-05T02:06:57.102Z,100562.84
2023-05-05T02:09:25.308Z,100564.14
2023-05-05T02:11:53.602Z,100563.06
2023-05-05T02:14:20.685Z,100563.41
2023-05-05T02:16:47.627Z,100562.39
2023-05-05T02:19:14.807Z,100565.14
2023-05-05T02:21:42.459Z,100559.21
2023-05-05T02:24:09.344Z,100561.61
2023-05-05T02:26:39.573Z,100564.08
2023-05-05T02:29:11.286Z,100562.71
2023-05-05T02:31:46.849Z,100564.52
2023-05-05T02:34:16.749Z,100559.95
2023-05-05T02:36:43.877Z,100561.45
2023-05-05T02:39:20.010Z,100562.66
2023-05-05T02:41:48.354Z,100561.38
2023-05-05T02:44:23.679Z,100561.30
2023-05-05T02:46:51.531Z,100563.52
2023-05-05T02:49:18.542Z,100566.21
2023-05-05T02:51:45.886Z,100567.99
2023-05-05T02:54:19.967Z,100571.95
2023-05-05T02:56:48.541Z,100571.24
2023-05-05T02:59:31.083Z,100570.66
2023-05-05T03:02:33.166Z,100571.59
2023-05-05T03:05:23.312Z,100574.00
2023-05-05T03:08:17.197Z,100577.09
2023-05-05T03:11:00.572Z,100576.14
2023-05-05T03:13:27.981Z,100576.27
2023-05-05T03:15:54.889Z,100577.72
2023-05-05T03:18:23.296Z,100577.83
2023-05-05T03:20:55.731Z,100577.29
2023-05-05T03:23:23.029Z,100581.40
2023-05-05T03:25:55.044Z,100581.28
2023-05-05T03:28:42.208Z,100584.70
2023-05-05T03:31:25.498Z,100588.31
2023-05-05T03:33:55.279Z,100585.04
2023-05-05T03:36:24.165Z,100586.86
2023-05-05T03:38:51.186Z,100585.80
2023-05-05T03:41:21.797Z,100585.83
2023-05-05T03:43:48.733Z,100584.15
2023-05-05T03:46:16.451Z,100587.91
2023-05-05T03:48:44.086Z,100591.80
2023-05-05T03:51:13.237Z,100592.30
2023-05-05T03:53:40.464Z,100588.64
2023-05-05T03:56:07.992Z,100590.50
2023-05-05T03:58:35.144Z,100592.39
2023-05-05T04:01:02.095Z,100594.83
2023-05-05T04:03:29.299Z,100592.63
2023-05-05T04:05:56.283Z,100593.04
2023-05-05T04:08:23.242Z,100595.31
2023-05-05T04:10:51.306Z,100595.08
2023-05-05T04:13:18.262Z,100596.38
2023-05-05T04:15:46.588Z,100599.29
2023-05-05T04:18:14.169Z,100600.80
2023-05-05T04:20:41.172Z,100602.04
2023-05-05T04:23:08.910Z,100601.23
2023-05-05T04:25:36.241Z,100605.20
2023-05-05T04:28:04.518Z,100610.33
2023-05-05T04:30:31.783Z,100611.76
2023-05-05T04:32:58.741Z,100613.08
2023-05-05T04:35:26.394Z,100616.36
2023-05-05T04:37:54.900Z,100615.97
2023-05-05T04:40:22.109Z,100614.07
2023-05-05T04:42:49.410Z,100616.97
2023-05-05T04:45:17.070Z,100618.15
2023-05-05T04:47:43.995Z,100618.04
2023-05-05T04:50:11.762Z,100618.88
2023-05-05T04:52:38.819Z,100620.64
2023-05-05T04:55:06.972Z,100623.02
2023-05-05T04:57:33.813Z,100625.81
2023-05-05T05:00:01.536Z,100621.48
2023-05-05T05:02:28.889Z,100622.29
2023-05-05T05:04:57.882Z,100622.91
2023-05-05T05:07:25.005Z,100626.27
2023-05-05T05:09:52.117Z,100624.65
2023-05-05T05:12:19.043Z,100619.92
2023-05-05T05:14:45.931Z,100621.50
2023-05-05T05:17:13.010Z,100619.80
2023-05-05T05:19:40.383Z,100619.83
2023-05-05T05:22:07.865Z,100623.89
2023-05-05T05:24:37.283Z,100624.95
2023-05-05T05:27:09.817Z,100627.77
2023-05-05T05:29:37.929Z,100625.88
2023-05-05T05:32:05.785Z,100623.77
2023-05-05T05:34:32.745Z,100626.20
2023-05-05T05:37:01.427Z,100630.11
2023-05-05T05:39:28.586Z,100625.35
2023-05-05T05:41:55.879Z,100625.73
2023-05-05T05:44:22.772Z,100626.62
2023-05-05T05:46:49.734Z,100630.18
2023-05-05T05:49:16.951Z,100635.19
2023-05-05T05:51:44.221Z,100638.38
2023-05-05T05:54:11.126Z,100637.57
2023-05-05T05:56:38.330Z,100636.98
2023-05-05T05:59:08.152Z,100638.08
2023-05-05T06:01:35.685Z,100636.17
2023-05-05T06:04:03.488Z,100634.55
2023-05-05T06:06:31.774Z,100639.52
2023-05-05T06:08:58.880Z,100638.39
2023-05-05T06:11:26.441Z,100635.23
2023-05-05T06:13:53.343Z,100635.44
2023-05-05T06:16:20.272Z,100633.52
2023-05-05T06:18:47.885Z,100634.14
2023-05-05T06:21:14.807Z,100634.55
2023-05-05T06:23:42.437Z,100631.73
2023-05-05T06:26:09.599Z,100629.92
2023-05-05T06:28:36.717Z,100625.73
2023-05-05T06:31:03.897Z,100625.95
2023-05-05T06:33:30.913Z,100626.63
2023-05-05T06:35:58.243Z,100624.99
2023-05-05T06:38:25.086Z,100627.17
2023-05-05T06:40:51.874Z,100626.07
2023-05-05T06:43:18.772Z,100629.73
2023-05-05T06:45:52.071Z,100633.52
2023-05-05T06:48:18.945Z,100630.62
2023-05-05T06:50:47.086Z,100632.95
2023-05-05T06:53:13.882Z,100634.91
2023-05-05T06:55:43.411Z,100630.11
2023-05-05T06:58:10.284Z,100627.48
2023-05-05T07:00:38.344Z,100625.38
2023-05-05T07:03:05.228Z,100623.21
2023-05-05T07:05:32.553Z,100623.40
2023-05-05T07:07:59.496Z,100623.34
2023-05-05T07:10:26.876Z,100627.48
2023-05-05T07:12:55.108Z,100630.60
2023-05-05T07:15:28.840Z,100633.17
2023-05-05T07:17:57.111Z,100635.05
2023-05-05T07:20:24.458Z,100631.63
2023-05-05T07:22:51.669Z,100633.08
2023-05-05T07:25:18.594Z,100635.38
2023-05-05T07:27:45.817Z,100632.79
2023-05-05T07:30:18.302Z,100629.15
2023-05-05T07:32:46.305Z,100629.20
2023-05-05T07:35:13.948Z,100629.33
2023-05-05T07:37:40.800Z,100630.25
2023-05-05T07:40:09.044Z,100633.21
2023-05-05T07:42:36.398Z,100633.95
2023-05-05T07:45:04.240Z,100631.90
2023-05-05T07:47:31.250Z,100635.33
2023-05-05T07:49:58.319Z,100639.40
2023-05-05T07:52:41.174Z,100633.11
2023-05-05T07:55:12.098Z,100633.23
2023-05-05T07:57:39.209Z,100634.46
2023-05-05T08:00:07.496Z,100633.09
2023-05-05T08:02:41.630Z,100629.74
2023-05-05T08:05:09.261Z,100633.83
2023-05-05T08:07:38.550Z,100628.90
2023-05-05T08:10:06.098Z,100630.80
2023-05-05T08:12:33.180Z,100627.94
2023-05-05T08:15:00.260Z,100624.88
2023-05-05T08:17:27.415Z,100627.33
2023-05-05T08:19:54.330Z,100628.22
2023-05-05T08:22:21.880Z,100631.02
2023-05-05T08:24:48.693Z,100633.52
2023-05-05T08:27:16.033Z,100631.14
2023-05-05T08:29:42.986Z,100630.13
2023-05-05T08:32:09.804Z,100634.66
2023-05-05T08:34:36.566Z,100631.80
2023-05-05T08:37:03.356Z,100633.91
2023-05-05T08:39:30.168Z,100632.89
2023-05-05T08:41:56.960Z,100625.52
2023-05-05T08:44:23.720Z,100625.07
2023-05-05T08:46:50.600Z,100623.67
2023-05-05T08:49:17.418Z,100622.79
2023-05-05T08:51:45.443Z,100624.77
2023-05-05T08:54:17.965Z,100626.24
2023-05-05T08:56:45.001Z,100628.73
2023-05-05T08:59:11.971Z,100631.50
2023-05-05T09:01:39.229Z,100629.77
2023-05-05T09:04:08.067Z,100628.80
2023-05-05T09:06:35.683Z,100627.34
2023-05-05T09:09:02.549Z,100627.80
2023-05-05T09:11:29.603Z,100626.64
2023-05-05T09:13:56.826Z,100625.98
2023-05-05T09:16:23.650Z,100619.77
2023-05-05T09:18:50.465Z,100615.91
2023-05-05T09:21:24.922Z,100616.39
2023-05-05T09:24:08.515Z,100610.46
2023-05-05T09:26:37.368Z,100611.93
2023-05-05T09:29:04.222Z,100607.01
2023-05-05T09:31:32.130Z,100607.95
2023-05-05T09:34:01.041Z,100605.80
2023-05-05T09:36:44.436Z,100605.42
2023-05-05T09:39:11.606Z,100599.95
2023-05-05T09:41:42.507Z,100601.19
2023-05-05T09:44:09.639Z,100599.48
2023-05-05T09:46:36.711Z,100598.70
2023-05-05T09:49:14.854Z,100601.60
2023-05-05T09:51:41.929Z,100594.94
2023-05-05T09:54:08.913Z,100594.02
2023-05-05T10:01:21.469Z,100598.53
2023-05-05T10:03:54.376Z,100591.33
2023-05-05T10:06:22.104Z,100588.40
2023-05-05T10:09:00.651Z,100586.90
2023-05-05T10:11:27.447Z,100591.77
2023-05-05T10:13:54.241Z,100590.70
2023-05-05T10:16:21.104Z,100588.56
2023-05-05T10:18:47.929Z,100585.53
2023-05-05T10:21:15.529Z,100586.48
2023-05-05T10:23:49.773Z,100582.70
2023-05-05T10:30:44.329Z,100577.05
2023-05-05T10:33:30.822Z,100573.87
2023-05-05T10:36:01.371Z,100569.39
2023-05-05T10:38:29.745Z,100571.27
2023-05-05T10:40:56.711Z,100568.89
2023-05-05T10:43:23.568Z,100566.27
2023-05-05T10:45:50.456Z,100562.95
2023-05-05T10:53:28.264Z,100565.56
2023-05-05T10:56:25.349Z,100563.22
2023-05-05T10:58:59.586Z,100557.81
2023-05-05T11:01:34.936Z,100549.56
2023-05-05T11:04:21.595Z,100553.15
2023-05-05T11:07:13.708Z,100550.17
2023-05-05T11:09:58.119Z,100550.91
2023-05-05T11:12:24.937Z,100544.53
2023-05-05T11:15:27.289Z,100537.63
2023-05-05T11:17:57.774Z,100534.13
2023-05-05T11:20:37.171Z,100541.29
2023-05-05T11:23:04.307Z,100535.02
2023-05-05T11:25:34.786Z,100534.90
2023-05-05T11:33:13.219Z,100526.72
2023-05-05T11:36:05.747Z,100526.79
2023-05-05T11:38:36.062Z,100522.67
2023-05-05T11:41:10.373Z,100521.52
2023-05-05T11:43:37.177Z,100518.70
2023-05-05T11:46:16.912Z,100518.69
2023-05-05T11:48:47.373Z,100518.09
2023-05-05T11:51:14.891Z,100512.76
2023-05-05T11:53:48.571Z,100513.09
2023-05-05T11:56:22.526Z,100513.91
2023-05-05T11:58:49.607Z,100513.36
2023-05-05T12:01:16.752Z,100511.89
2023-05-05T12:08:17.160Z,100510.02
2023-05-05T12:10:44.090Z,100509.90
2023-05-05T12:13:19.298Z,100511.11
2023-05-05T12:15:46.630Z,100499.19
2023-05-05T12:18:20.489Z,100497.70
2023-05-05T12:20:47.333Z,100492.23
2023-05-05T12:23:14.707Z,100490.42
2023-05-05T12:25:41.750Z,100489.37
2023-05-05T12:28:08.716Z,100487.94
2023-05-05T12:30:35.930Z,100487.30
2023-05-05T12:33:07.086Z,100486.04
2023-05-05T12:35:34.085Z,100484.45
2023-05-05T12:38:01.263Z,100477.78
2023-05-05T12:40:45.066Z,100475.48
2023-05-05T12:43:31.485Z,100474.77
2023-05-05T12:46:25.228Z,100472.82
2023-05-05T12:49:04.968Z,100475.93
2023-05-05T12:51:36.116Z,100472.30
2023-05-05T12:54:08.222Z,100468.80
2023-05-05T12:56:40.729Z,100464.75
2023-05-05T12:59:08.181Z,100465.27
2023-05-05T13:01:36.068Z,100464.90
2023-05-05T13:04:13.431Z,100463.27
2023-05-05T13:06:42.563Z,100461.39
2023-05-05T13:09:12.337Z,100461.70
2023-05-05T13:11:39.672Z,100464.73
2023-05-05T13:14:06.727Z,100467.23
2023-05-05T13:16:33.981Z,100465.46
2023-05-05T13:19:00.812Z,100462.80
2023-05-05T13:21:28.099Z,100464.42
2023-05-05T13:24:04.932Z,100466.30
2023-05-05T13:26:39.540Z,100465.81
2023-05-05T13:29:06.446Z,100468.47
2023-05-05T13:31:33.302Z,100464.34
2023-05-05T13:34:00.220Z,100459.91
2023-05-05T13:36:27.154Z,100457.95
2023-05-05T13:38:54.082Z,100455.89
2023-05-05T13:41:21.025Z,100454.52
2023-05-05T13:43:47.980Z,100457.41
2023-05-05T13:46:20.001Z,100455.55
2023-05-05T13:48:47.343Z,100450.63
2023-05-05T13:51:15.830Z,100447.83
2023-05-05T13:53:44.169Z,100447.32
2023-05-05T13:56:11.552Z,100447.39
2023-05-05T13:58:38.436Z,100451.55
2023-05-05T14:01:05.894Z,100450.37
2023-05-05T14:03:33.354Z,100452.41
2023-05-05T14:06:00.352Z,100452.02
2023-05-05T14:08:27.308Z,100448.89
2023-05-05T14:10:54.254Z,100450.53
2023-05-05T14:13:22.067Z,100450.04
2023-05-05T14:15:50.721Z,100452.50
2023-05-05T14:18:17.704Z,100449.31
2023-05-05T14:20:44.659Z,100447.02
2023-05-05T14:23:11.608Z,100443.19
2023-05-05T14:25:39.269Z,100443.52
2023-05-05T14:28:06.251Z,100440.85
2023-05-05T14:30:33.226Z,100434.98
2023-05-05T14:33:01.266Z,100437.20
2023-05-05T14:35:28.328Z,100435.20
2023-05-05T14:37:57.910Z,100435.82
2023-05-05T14:40:29.970Z,100434.62
2023-05-05T14:42:59.340Z,100432.80
2023-05-05T14:45:29.620Z,100432.27
2023-05-05T14:47:59.016Z,100433.88
2023-05-05T14:50:28.983Z,100428.90
2023-05-05T14:52:58.980Z,100431.36
2023-05-05T14:55:28.905Z,100436.52
2023-05-05T14:57:58.989Z,100435.23
2023-05-05T15:00:29.223Z,100439.57
2023-05-05T15:02:59.466Z,100441.59
2023-05-05T15:05:29.423Z,100449.79
2023-05-05T15:07:59.047Z,100449.89
2023-05-05T15:10:28.277Z,100447.28
2023-05-05T15:12:58.119Z,100449.77
2023-05-05T15:15:27.626Z,100453.27
2023-05-05T15:17:56.556Z,100453.08
2023-05-05T15:20:27.050Z,100446.33
2023-05-05T15:22:58.078Z,100443.86
2023-05-05T15:25:27.511Z,100446.11
2023-05-05T15:27:58.047Z,100450.77
2023-05-05T15:30:28.028Z,100451.25
2023-05-05T15:32:58.109Z,100452.48
2023-05-05T15:35:28.108Z,100452.16
2023-05-05T15:44:20.280Z,100457.00
2023-05-05T15:46:49.700Z,100457.59
2023-05-05T15:49:17.414Z,100465.20
2023-05-05T15:51:44.239Z,100466.13
2023-05-05T15:54:11.284Z,100468.95
2023-05-05T15:56:38.231Z,100470.98
2023-05-05T15:59:05.238Z,100475.05
2023-05-05T16:01:33.752Z,100471.64
2023-05-05T16:04:01.442Z,100479.48
2023-05-05T16:06:28.414Z,100483.22
2023-05-05T16:08:58.209Z,100482.02
2023-05-05T16:11:26.300Z,100481.10
2023-05-05T16:13:53.643Z,100482.40
2023-05-05T16:16:20.908Z,100482.75
2023-05-05T16:18:48.038Z,100487.20
2023-05-05T16:21:15.108Z,100488.70
2023-05-05T16:23:42.212Z,100491.27
2023-05-05T16:26:09.081Z,100494.06
2023-05-05T16:28:36.243Z,100496.92
2023-05-05T16:31:03.052Z,100500.73
2023-05-05T16:33:30.076Z,100503.42
2023-05-05T16:35:56.919Z,100504.85
2023-05-05T16:38:23.929Z,100506.39
2023-05-05T16:40:50.775Z,100507.29
2023-05-05T16:43:18.888Z,100509.67
2023-05-05T16:45:46.835Z,100510.59
2023-05-05T16:48:14.820Z,100513.27
2023-05-05T16:50:41.763Z,100514.64
2023-05-05T16:53:09.387Z,100516.98
2023-05-05T16:55:36.992Z,100520.29
2023-05-05T16:58:04.470Z,100522.11
2023-05-05T17:00:31.255Z,100523.95
2023-05-05T17:02:58.162Z,100528.11
2023-05-05T17:05:25.385Z,100532.27
2023-05-05T17:07:52.516Z,100531.17
2023-05-05T17:10:19.856Z,100535.59
2023-05-05T17:12:46.660Z,100535.53
2023-05-05T17:15:13.583Z,100537.10
2023-05-05T17:17:42.358Z,100537.44
2023-05-05T17:20:11.172Z,100542.94
2023-05-05T17:22:38.294Z,100547.78
2023-05-05T17:25:06.484Z,100551.39
2023-05-05T17:27:33.579Z,100550.52
2023-05-05T17:30:00.647Z,100549.99
2023-05-05T17:32:27.740Z,100551.58
2023-05-05T17:34:54.845Z,100552.41
2023-05-05T17:37:21.977Z,100553.69
2023-05-05T17:39:48.814Z,100558.36
2023-05-05T17:42:19.304Z,100562.02
2023-05-05T17:44:47.630Z,100563.20
2023-05-05T17:47:14.946Z,100565.16
2023-05-05T17:49:41.731Z,100567.81
2023-05-05T17:52:08.601Z,100569.86
2023-05-05T17:54:35.420Z,100577.55
2023-05-05T17:57:03.184Z,100578.36
2023-05-05T17:59:31.655Z,100579.55
2023-05-05T18:01:58.476Z,100578.38
2023-05-05T18:04:25.591Z,100583.16
2023-05-05T18:06:56.598Z,100586.09
2023-05-05T18:09:23.719Z,100587.15
2023-05-05T18:11:54.165Z,100593.85
2023-05-05T18:14:24.181Z,100592.84
2023-05-05T18:16:52.484Z,100594.19
2023-05-05T18:19:20.984Z,100596.55
2023-05-05T18:21:48.805Z,100598.80
2023-05-05T18:24:20.387Z,100603.66
2023-05-05T18:26:49.671Z,100603.52
2023-05-05T18:29:20.260Z,100604.68
2023-05-05T18:31:51.986Z,100609.12
2023-05-05T18:34:19.877Z,100611.88
2023-05-05T18:36:47.150Z,100609.36
2023-05-05T18:39:15.212Z,100613.59
2023-05-05T18:41:42.134Z,100618.33
2023-05-05T18:44:09.951Z,100623.66
2023-05-05T18:46:36.832Z,100623.14
2023-05-05T18:49:03.861Z,100621.47
2023-05-05T18:51:30.903Z,100620.84
2023-05-05T18:53:57.940Z,100622.27
2023-05-05T18:56:24.765Z,100622.08
2023-05-05T18:58:51.598Z,100623.55
2023-05-05T19:01:18.703Z,100624.14
2023-05-05T19:03:48.849Z,100626.10
2023-05-05T19:06:16.314Z,100630.12
2023-05-05T19:08:46.700Z,100633.08
2023-05-05T19:11:15.264Z,100634.81
2023-05-05T19:13:42.553Z,100636.52
2023-05-05T19:16:11.367Z,100639.06
2023-05-05T19:18:38.970Z,100639.80
2023-05-05T19:21:05.902Z,100640.70
2023-05-05T19:23:33.514Z,100638.92
2023-05-05T19:26:00.754Z,100640.09
2023-05-05T19:28:27.704Z,100644.05
2023-05-05T19:30:54.758Z,100642.00
2023-05-05T19:33:21.756Z,100642.73
2023-05-05T19:35:48.644Z,100644.46
2023-05-05T19:38:16.003Z,100646.20
2023-05-05T19:40:42.923Z,100644.63
2023-05-05T19:43:09.756Z,100644.67
2023-05-05T19:45:36.640Z,100644.40
2023-05-05T19:48:03.606Z,100642.27
2023-05-05T19:50:31.849Z,100643.95
2023-05-05T19:52:58.786Z,100638.89
2023-05-05T19:55:25.962Z,100636.86
2023-05-05T19:57:52.957Z,100635.08
2023-05-05T20:00:20.321Z,100634.82
2023-05-05T20:02:49.264Z,100634.46
2023-05-05T20:05:17.470Z,100634.39
2023-05-05T20:07:46.483Z,100633.59
2023-05-05T20:10:13.639Z,100631.22
2023-05-05T20:12:47.905Z,100632.39
2023-05-05T20:15:18.854Z,100632.44
2023-05-05T20:17:46.975Z,100625.94
2023-05-05T20:20:20.476Z,100628.08
2023-05-05T20:22:47.823Z,100626.14
2023-05-05T20:25:17.750Z,100622.98
2023-05-05T20:27:45.372Z,100622.92
2023-05-05T20:30:12.539Z,100622.13
2023-05-05T20:32:39.528Z,100623.27
2023-05-05T20:35:07.464Z,100615.81
2023-05-05T20:37:34.332Z,100610.63
2023-05-05T20:40:01.139Z,100612.85
2023-05-05T20:42:28.065Z,100613.82
2023-05-05T20:44:54.929Z,100614.64
2023-05-05T20:47:21.736Z,100616.77
2023-05-05T20:49:48.757Z,100617.83
2023-05-05T20:52:15.671Z,100622.79
2023-05-05T20:54:42.562Z,100629.61
2023-05-05T20:57:09.290Z,100634.09
2023-05-05T20:59:36.073Z,100635.90
2023-05-05T21:02:02.946Z,100638.46
2023-05-05T21:04:29.795Z,100636.21
2023-05-05T21:06:57.453Z,100637.90
2023-05-05T21:09:24.218Z,100638.69
2023-05-05T21:11:50.971Z,100636.47
2023-05-05T21:14:17.995Z,100637.29
2023-05-05T21:21:18.241Z,100637.37
2023-05-05T21:23:47.333Z,100636.66
2023-05-05T21:26:14.153Z,100639.60
2023-05-05T21:28:41.415Z,100643.09
2023-05-05T21:31:21.295Z,100644.59
2023-05-05T21:33:49.499Z,100642.77
2023-05-05T21:36:17.652Z,100647.09
2023-05-05T21:38:44.786Z,100646.27
2023-05-05T21:41:12.226Z,100649.34
2023-05-05T21:43:39.109Z,100649.02
2023-05-05T21:46:06.118Z,100648.76
2023-05-05T21:48:33.213Z,100652.08
2023-05-05T21:51:00.115Z,100652.91
2023-05-05T21:53:27.009Z,100655.63
2023-05-05T21:55:54.036Z,100655.27
2023-05-05T21:58:20.825Z,100650.87
2023-05-05T22:00:51.064Z,100652.73
2023-05-05T22:03:18.317Z,100651.23
2023-05-05T22:05:45.237Z,100648.23
2023-05-05T22:08:12.079Z,100647.91
2023-05-05T22:10:39.483Z,100647.75
2023-05-05T22:13:06.778Z,100645.88
2023-05-05T22:15:43.032Z,100646.73
2023-05-05T22:18:14.132Z,100648.50
2023-05-05T22:20:40.979Z,100646.31
2023-05-05T22:23:07.819Z,100645.07
2023-05-05T22:25:34.592Z,100643.69
2023-05-05T22:28:01.494Z,100643.30
2023-05-05T22:30:28.263Z,100641.75
2023-05-05T22:32:55.224Z,100640.77
2023-05-05T22:35:22.465Z,100645.75
2023-05-05T22:37:49.328Z,100646.17
2023-05-05T22:40:16.615Z,100646.02
2023-05-05T22:42:43.579Z,100645.89
2023-05-05T22:45:10.917Z,100643.45
2023-05-05T22:47:37.930Z,100643.05
2023-05-05T22:50:05.355Z,100644.61
2023-05-05T22:52:32.172Z,100645.20
2023-05-05T22:54:59.020Z,100644.02
2023-05-05T22:57:25.879Z,100641.00
2023-05-05T22:59:52.932Z,100640.82
2023-05-05T23:02:19.987Z,100636.66
2023-05-05T23:04:46.816Z,100638.91
2023-05-05T23:07:14.113Z,100644.39
2023-05-05T23:09:41.140Z,100644.22
2023-05-05T23:16:57.521Z,100637.83
2023-05-05T23:19:24.569Z,100634.84
2023-05-05T23:21:53.661Z,100635.69
2023-05-05T23:24:21.867Z,100632.87
2023-05-05T23:26:49.281Z,100634.42
2023-05-05T23:29:16.232Z,100633.02
2023-05-05T23:31:43.070Z,100634.27
2023-05-05T23:34:09.896Z,100632.52
2023-05-05T23:36:37.058Z,100636.23
2023-05-05T23:39:04.062Z,100637.36
2023-05-05T23:41:30.867Z,100637.96
2023-05-05T23:43:57.777Z,100639.26
2023-05-05T23:46:25.057Z,100640.61
2023-05-05T23:48:52.023Z,100641.51
2023-05-05T23:51:18.830Z,100639.13
2023-05-05T23:53:45.715Z,100640.20
2023-05-05T23:56:12.940Z,100642.94
2023-05-05T23:58:39.792Z,100647.41
